sensor_id;sensor_type;location;lat;lon;timestamp;P1;durP1;ratioP1;P2;durP2;ratioP2
7295;SDS011;40758;54.038;11.684;2022-09-01T00:00:17;0.30;;;0.30;;
7295;SDS011;40758;54.038;11.684;2022-09-01T00:02:47;0.30;;;0.30;;
7295;SDS011;40758;54.038;11.684;2022-09-01T00:05:16;0.30;;;0.30;;
7295;SDS011;40758;54.038;11.684;2022-09-01T00:07:46;0.30;;;0.30;;
7295;SDS011;40758;54.038;11.684;2022-09-01T00:10:15;0.30;;;0.30;;
7295;SDS011;40758;54.038;11.684;2022-09-01T00:12:44;0.30;;;0.30;;
7295;SDS011;40758;54.038;11.684;2022-09-01T00:15:12;0.30;;;0.30;;
7295;SDS011;40758;54.038;11.684;2022-09-01T00:17:41;0.30;;;0.30;;
7295;SDS011;40758;54.038;11.684;2022-09-01T00:20:10;0.40;;;0.40;;
7295;SDS011;40758;54.038;11.684;2022-09-01T00:22:47;0.30;;;0.30;;
7295;SDS011;40758;54.038;11.684;2022-09-01T00:25:16;0.30;;;0.30;;
7295;SDS011;40758;54.038;11.684;2022-09-01T00:27:46;0.40;;;0.40;;
7295;SDS011;40758;54.038;11.684;2022-09-01T00:30:15;0.40;;;0.40;;
7295;SDS011;40758;54.038;11.684;2022-09-01T00:32:48;0.40;;;0.40;;
7295;SDS011;40758;54.038;11.684;2022-09-01T00:35:17;0.30;;;0.30;;
7295;SDS011;40758;54.038;11.684;2022-09-01T00:37:48;0.30;;;0.30;;
7295;SDS011;40758;54.038;11.684;2022-09-01T00:40:17;0.30;;;0.30;;
7295;SDS011;40758;54.038;11.684;2022-09-01T00:42:46;0.30;;;0.30;;
7295;SDS011;40758;54.038;11.684;2022-09-01T00:45:15;0.40;;;0.40;;
7295;SDS011;40758;54.038;11.684;2022-09-01T00:47:48;0.30;;;0.30;;
7295;SDS011;40758;54.038;11.684;2022-09-01T00:50:18;0.60;;;0.60;;
7295;SDS011;40758;54.038;11.684;2022-09-01T00:52:50;0.30;;;0.30;;
7295;SDS011;40758;54.038;11.684;2022-09-01T00:55:22;0.30;;;0.30;;
7295;SDS011;40758;54.038;11.684;2022-09-01T00:57:58;0.30;;;0.30;;
7295;SDS011;40758;54.038;11.684;2022-09-01T01:00:29;0.30;;;0.30;;
7295;SDS011;40758;54.038;11.684;2022-09-01T01:05:18;0.30;;;0.30;;
7295;SDS011;40758;54.038;11.684;2022-09-01T01:07:48;0.30;;;0.30;;
7295;SDS011;40758;54.038;11.684;2022-09-01T01:10:17;0.30;;;0.30;;
7295;SDS011;40758;54.038;11.684;2022-09-01T01:12:50;0.30;;;0.30;;
7295;SDS011;40758;54.038;11.684;2022-09-01T01:15:19;0.37;;;0.37;;
7295;SDS011;40758;54.038;11.684;2022-09-01T01:17:48;0.40;;;0.40;;
7295;SDS011;40758;54.038;11.684;2022-09-01T01:20:18;0.30;;;0.30;;
7295;SDS011;40758;54.038;11.684;2022-09-01T01:23:12;0.40;;;0.40;;
7295;SDS011;40758;54.038;11.684;2022-09-01T01:25:53;0.30;;;0.30;;
7295;SDS011;40758;54.038;11.684;2022-09-01T01:28:26;0.30;;;0.30;;
7295;SDS011;40758;54.038;11.684;2022-09-01T01:30:58;0.30;;;0.30;;
7295;SDS011;40758;54.038;11.684;2022-09-01T01:33:32;0.30;;;0.30;;
7295;SDS011;40758;54.038;11.684;2022-09-01T01:36:08;0.30;;;0.30;;
7295;SDS011;40758;54.038;11.684;2022-09-01T01:38:41;0.30;;;0.30;;
7295;SDS011;40758;54.038;11.684;2022-09-01T01:41:16;0.30;;;0.30;;
7295;SDS011;40758;54.038;11.684;2022-09-01T01:43:47;0.40;;;0.40;;
7295;SDS011;40758;54.038;11.684;2022-09-01T01:46:16;0.30;;;0.30;;
7295;SDS011;40758;54.038;11.684;2022-09-01T01:48:48;0.40;;;0.40;;
7295;SDS011;40758;54.038;11.684;2022-09-01T01:51:18;0.30;;;0.30;;
7295;SDS011;40758;54.038;11.684;2022-09-01T01:53:50;0.30;;;0.30;;
7295;SDS011;40758;54.038;11.684;2022-09-01T01:56:22;0.40;;;0.40;;
7295;SDS011;40758;54.038;11.684;2022-09-01T01:58:51;0.30;;;0.30;;
7295;SDS011;40758;54.038;11.684;2022-09-01T02:01:23;0.40;;;0.40;;
7295;SDS011;40758;54.038;11.684;2022-09-01T02:03:55;0.40;;;0.40;;
7295;SDS011;40758;54.038;11.684;2022-09-01T02:06:26;0.40;;;0.40;;
7295;SDS011;40758;54.038;11.684;2022-09-01T02:08:55;0.40;;;0.40;;
7295;SDS011;40758;54.038;11.684;2022-09-01T02:11:28;0.40;;;0.40;;
7295;SDS011;40758;54.038;11.684;2022-09-01T02:13:59;0.30;;;0.30;;
7295;SDS011;40758;54.038;11.684;2022-09-01T02:16:28;0.40;;;0.40;;
7295;SDS011;40758;54.038;11.684;2022-09-01T02:19:00;0.40;;;0.40;;
7295;SDS011;40758;54.038;11.684;2022-09-01T02:21:32;0.30;;;0.30;;
7295;SDS011;40758;54.038;11.684;2022-09-01T02:24:02;0.40;;;0.40;;
7295;SDS011;40758;54.038;11.684;2022-09-01T02:26:37;0.40;;;0.40;;
7295;SDS011;40758;54.038;11.684;2022-09-01T02:29:16;0.40;;;0.40;;
7295;SDS011;40758;54.038;11.684;2022-09-01T02:31:49;0.30;;;0.30;;
7295;SDS011;40758;54.038;11.684;2022-09-01T02:34:20;0.30;;;0.30;;
7295;SDS011;40758;54.038;11.684;2022-09-01T02:36:55;0.40;;;0.40;;
7295;SDS011;40758;54.038;11.684;2022-09-01T02:39:25;0.40;;;0.40;;
7295;SDS011;40758;54.038;11.684;2022-09-01T02:42:00;0.30;;;0.30;;
7295;SDS011;40758;54.038;11.684;2022-09-01T02:44:29;0.30;;;0.30;;
7295;SDS011;40758;54.038;11.684;2022-09-01T02:46:58;0.40;;;0.40;;
7295;SDS011;40758;54.038;11.684;2022-09-01T02:49:27;0.40;;;0.40;;
7295;SDS011;40758;54.038;11.684;2022-09-01T02:51:57;0.40;;;0.40;;
7295;SDS011;40758;54.038;11.684;2022-09-01T02:54:28;0.40;;;0.40;;
7295;SDS011;40758;54.038;11.684;2022-09-01T02:57:00;0.30;;;0.30;;
7295;SDS011;40758;54.038;11.684;2022-09-01T02:59:30;0.37;;;0.37;;
7295;SDS011;40758;54.038;11.684;2022-09-01T03:05:18;0.40;;;0.40;;
7295;SDS011;40758;54.038;11.684;2022-09-01T03:07:51;0.40;;;0.40;;
7295;SDS011;40758;54.038;11.684;2022-09-01T03:10:26;0.30;;;0.30;;
7295;SDS011;40758;54.038;11.684;2022-09-01T03:12:59;0.40;;;0.40;;
7295;SDS011;40758;54.038;11.684;2022-09-01T03:15:30;0.30;;;0.30;;
7295;SDS011;40758;54.038;11.684;2022-09-01T03:17:59;0.40;;;0.40;;
7295;SDS011;40758;54.038;11.684;2022-09-01T03:20:31;0.30;;;0.30;;
7295;SDS011;40758;54.038;11.684;2022-09-01T03:23:04;1.13;;;0.40;;
7295;SDS011;40758;54.038;11.684;2022-09-01T03:25:35;0.40;;;0.40;;
7295;SDS011;40758;54.038;11.684;2022-09-01T03:28:04;0.33;;;0.33;;
7295;SDS011;40758;54.038;11.684;2022-09-01T03:30:35;0.50;;;0.50;;
7295;SDS011;40758;54.038;11.684;2022-09-01T03:33:07;0.40;;;0.40;;
7295;SDS011;40758;54.038;11.684;2022-09-01T03:35:37;0.40;;;0.40;;
7295;SDS011;40758;54.038;11.684;2022-09-01T03:38:07;0.30;;;0.30;;
7295;SDS011;40758;54.038;11.684;2022-09-01T03:40:38;0.40;;;0.40;;
7295;SDS011;40758;54.038;11.684;2022-09-01T03:43:08;0.40;;;0.40;;
7295;SDS011;40758;54.038;11.684;2022-09-01T03:45:39;0.30;;;0.30;;
7295;SDS011;40758;54.038;11.684;2022-09-01T03:48:09;0.30;;;0.30;;
7295;SDS011;40758;54.038;11.684;2022-09-01T03:50:40;0.40;;;0.40;;
7295;SDS011;40758;54.038;11.684;2022-09-01T03:53:11;0.33;;;0.33;;
7295;SDS011;40758;54.038;11.684;2022-09-01T03:55:43;0.37;;;0.37;;
7295;SDS011;40758;54.038;11.684;2022-09-01T03:58:15;0.40;;;0.40;;
7295;SDS011;40758;54.038;11.684;2022-09-01T04:00:47;0.40;;;0.40;;
7295;SDS011;40758;54.038;11.684;2022-09-01T04:03:22;0.30;;;0.30;;
7295;SDS011;40758;54.038;11.684;2022-09-01T04:05:59;0.87;;;0.53;;
7295;SDS011;40758;54.038;11.684;2022-09-01T04:08:28;0.40;;;0.40;;
7295;SDS011;40758;54.038;11.684;2022-09-01T04:10:59;0.33;;;0.33;;
7295;SDS011;40758;54.038;11.684;2022-09-01T04:13:33;0.63;;;0.63;;
7295;SDS011;40758;54.038;11.684;2022-09-01T04:16:05;1.50;;;0.40;;
7295;SDS011;40758;54.038;11.684;2022-09-01T04:19:03;0.33;;;0.33;;
7295;SDS011;40758;54.038;11.684;2022-09-01T04:21:43;2.17;;;0.50;;
7295;SDS011;40758;54.038;11.684;2022-09-01T04:24:12;0.30;;;0.30;;
7295;SDS011;40758;54.038;11.684;2022-09-01T04:26:41;0.40;;;0.40;;
7295;SDS011;40758;54.038;11.684;2022-09-01T04:29:13;0.30;;;0.30;;
7295;SDS011;40758;54.038;11.684;2022-09-01T04:31:44;0.30;;;0.30;;
7295;SDS011;40758;54.038;11.684;2022-09-01T04:34:19;0.30;;;0.30;;
7295;SDS011;40758;54.038;11.684;2022-09-01T04:36:53;0.40;;;0.40;;
7295;SDS011;40758;54.038;11.684;2022-09-01T04:39:24;0.37;;;0.37;;
7295;SDS011;40758;54.038;11.684;2022-09-01T04:41:53;0.40;;;0.40;;
7295;SDS011;40758;54.038;11.684;2022-09-01T04:44:22;0.40;;;0.40;;
7295;SDS011;40758;54.038;11.684;2022-09-01T04:46:51;0.30;;;0.30;;
7295;SDS011;40758;54.038;11.684;2022-09-01T04:49:21;0.33;;;0.33;;
7295;SDS011;40758;54.038;11.684;2022-09-01T04:51:52;0.30;;;0.30;;
7295;SDS011;40758;54.038;11.684;2022-09-01T04:54:22;0.30;;;0.30;;
7295;SDS011;40758;54.038;11.684;2022-09-01T04:56:51;0.37;;;0.37;;
7295;SDS011;40758;54.038;11.684;2022-09-01T04:59:21;0.40;;;0.40;;
7295;SDS011;40758;54.038;11.684;2022-09-01T05:05:24;0.40;;;0.40;;
7295;SDS011;40758;54.038;11.684;2022-09-01T05:07:56;0.30;;;0.30;;
7295;SDS011;40758;54.038;11.684;2022-09-01T05:10:24;0.33;;;0.33;;
7295;SDS011;40758;54.038;11.684;2022-09-01T05:12:55;1.43;;;0.40;;
7295;SDS011;40758;54.038;11.684;2022-09-01T05:15:36;1.20;;;1.13;;
7295;SDS011;40758;54.038;11.684;2022-09-01T05:18:08;0.30;;;0.30;;
7295;SDS011;40758;54.038;11.684;2022-09-01T05:20:39;0.40;;;0.40;;
7295;SDS011;40758;54.038;11.684;2022-09-01T05:23:10;1.30;;;0.47;;
7295;SDS011;40758;54.038;11.684;2022-09-01T05:25:40;0.30;;;0.30;;
7295;SDS011;40758;54.038;11.684;2022-09-01T05:28:11;0.30;;;0.30;;
7295;SDS011;40758;54.038;11.684;2022-09-01T05:30:40;0.43;;;0.40;;
7295;SDS011;40758;54.038;11.684;2022-09-01T05:33:12;0.40;;;0.40;;
7295;SDS011;40758;54.038;11.684;2022-09-01T05:35:52;0.30;;;0.30;;
7295;SDS011;40758;54.038;11.684;2022-09-01T05:38:25;0.30;;;0.30;;
7295;SDS011;40758;54.038;11.684;2022-09-01T05:40:56;0.30;;;0.30;;
7295;SDS011;40758;54.038;11.684;2022-09-01T05:43:29;0.30;;;0.30;;
7295;SDS011;40758;54.038;11.684;2022-09-01T05:45:59;0.20;;;0.20;;
7295;SDS011;40758;54.038;11.684;2022-09-01T05:48:32;0.10;;;0.10;;
7295;SDS011;40758;54.038;11.684;2022-09-01T05:51:07;0.10;;;0.10;;
7295;SDS011;40758;54.038;11.684;2022-09-01T05:54:02;0.10;;;0.10;;
7295;SDS011;40758;54.038;11.684;2022-09-01T05:56:35;0.10;;;0.10;;
7295;SDS011;40758;54.038;11.684;2022-09-01T05:59:10;0.10;;;0.10;;
7295;SDS011;40758;54.038;11.684;2022-09-01T06:01:49;0.10;;;0.10;;
7295;SDS011;40758;54.038;11.684;2022-09-01T06:04:19;3.30;;;0.30;;
7295;SDS011;40758;54.038;11.684;2022-09-01T06:06:52;0.10;;;0.10;;
7295;SDS011;40758;54.038;11.684;2022-09-01T06:09:35;0.10;;;0.10;;
7295;SDS011;40758;54.038;11.684;2022-09-01T06:12:05;0.17;;;0.17;;
7295;SDS011;40758;54.038;11.684;2022-09-01T06:14:44;0.20;;;0.20;;
7295;SDS011;40758;54.038;11.684;2022-09-01T06:17:14;0.20;;;0.20;;
7295;SDS011;40758;54.038;11.684;2022-09-01T06:19:44;1.60;;;0.30;;
7295;SDS011;40758;54.038;11.684;2022-09-01T06:22:15;0.10;;;0.10;;
7295;SDS011;40758;54.038;11.684;2022-09-01T06:24:44;0.20;;;0.20;;
7295;SDS011;40758;54.038;11.684;2022-09-01T06:27:20;0.10;;;0.10;;
7295;SDS011;40758;54.038;11.684;2022-09-01T06:29:53;0.20;;;0.20;;
7295;SDS011;40758;54.038;11.684;2022-09-01T06:32:21;0.10;;;0.10;;
7295;SDS011;40758;54.038;11.684;2022-09-01T06:34:51;0.20;;;0.20;;
7295;SDS011;40758;54.038;11.684;2022-09-01T06:37:24;0.23;;;0.23;;
7295;SDS011;40758;54.038;11.684;2022-09-01T06:39:54;0.20;;;0.20;;
7295;SDS011;40758;54.038;11.684;2022-09-01T06:42:23;0.10;;;0.10;;
7295;SDS011;40758;54.038;11.684;2022-09-01T06:44:52;0.20;;;0.20;;
7295;SDS011;40758;54.038;11.684;2022-09-01T06:47:20;0.10;;;0.10;;
7295;SDS011;40758;54.038;11.684;2022-09-01T06:49:49;0.10;;;0.10;;
7295;SDS011;40758;54.038;11.684;2022-09-01T06:52:24;0.10;;;0.10;;
7295;SDS011;40758;54.038;11.684;2022-09-01T06:54:53;0.10;;;0.10;;
7295;SDS011;40758;54.038;11.684;2022-09-01T06:57:23;0.10;;;0.10;;
7295;SDS011;40758;54.038;11.684;2022-09-01T07:00:16;0.00;;;0.00;;
7295;SDS011;40758;54.038;11.684;2022-09-01T07:05:18;0.00;;;0.00;;
7295;SDS011;40758;54.038;11.684;2022-09-01T07:08:09;0.00;;;0.00;;
7295;SDS011;40758;54.038;11.684;2022-09-01T07:10:47;0.00;;;0.00;;
7295;SDS011;40758;54.038;11.684;2022-09-01T07:13:43;0.15;;;0.15;;
7295;SDS011;40758;54.038;11.684;2022-09-01T07:16:33;0.00;;;0.00;;
7295;SDS011;40758;54.038;11.684;2022-09-01T07:19:26;0.00;;;0.00;;
7295;SDS011;40758;54.038;11.684;2022-09-01T07:22:16;0.00;;;0.00;;
7295;SDS011;40758;54.038;11.684;2022-09-01T07:25:08;0.00;;;0.00;;
7295;SDS011;40758;54.038;11.684;2022-09-01T07:27:38;0.00;;;0.00;;
7295;SDS011;40758;54.038;11.684;2022-09-01T07:30:16;0.10;;;0.10;;
7295;SDS011;40758;54.038;11.684;2022-09-01T07:32:49;0.00;;;0.00;;
7295;SDS011;40758;54.038;11.684;2022-09-01T07:35:20;0.00;;;0.00;;
7295;SDS011;40758;54.038;11.684;2022-09-01T07:37:51;0.00;;;0.00;;
7295;SDS011;40758;54.038;11.684;2022-09-01T07:40:41;2.13;;;0.10;;
7295;SDS011;40758;54.038;11.684;2022-09-01T07:43:30;0.00;;;0.00;;
7295;SDS011;40758;54.038;11.684;2022-09-01T07:46:02;0.00;;;0.00;;
7295;SDS011;40758;54.038;11.684;2022-09-01T07:48:52;2.80;;;0.10;;
7295;SDS011;40758;54.038;11.684;2022-09-01T07:51:42;0.00;;;0.00;;
7295;SDS011;40758;54.038;11.684;2022-09-01T07:54:18;0.00;;;0.00;;
7295;SDS011;40758;54.038;11.684;2022-09-01T07:56:50;0.17;;;0.17;;
7295;SDS011;40758;54.038;11.684;2022-09-01T07:59:20;3.40;;;0.10;;
7295;SDS011;40758;54.038;11.684;2022-09-01T08:01:49;0.00;;;0.00;;
7295;SDS011;40758;54.038;11.684;2022-09-01T08:04:18;0.00;;;0.00;;
7295;SDS011;40758;54.038;11.684;2022-09-01T08:06:48;0.00;;;0.00;;
7295;SDS011;40758;54.038;11.684;2022-09-01T08:09:18;0.00;;;0.00;;
7295;SDS011;40758;54.038;11.684;2022-09-01T08:12:03;0.00;;;0.00;;
7295;SDS011;40758;54.038;11.684;2022-09-01T08:14:34;0.32;;;0.10;;
7295;SDS011;40758;54.038;11.684;2022-09-01T08:17:04;0.10;;;0.10;;
7295;SDS011;40758;54.038;11.684;2022-09-01T08:19:43;0.00;;;0.00;;
7295;SDS011;40758;54.038;11.684;2022-09-01T08:22:12;0.00;;;0.00;;
7295;SDS011;40758;54.038;11.684;2022-09-01T08:24:43;0.00;;;0.00;;
7295;SDS011;40758;54.038;11.684;2022-09-01T08:27:15;0.00;;;0.00;;
7295;SDS011;40758;54.038;11.684;2022-09-01T08:29:44;0.00;;;0.00;;
7295;SDS011;40758;54.038;11.684;2022-09-01T08:32:14;0.00;;;0.00;;
7295;SDS011;40758;54.038;11.684;2022-09-01T08:34:43;0.00;;;0.00;;
7295;SDS011;40758;54.038;11.684;2022-09-01T08:37:11;0.00;;;0.00;;
7295;SDS011;40758;54.038;11.684;2022-09-01T08:39:40;0.00;;;0.00;;
7295;SDS011;40758;54.038;11.684;2022-09-01T08:42:12;0.00;;;0.00;;
7295;SDS011;40758;54.038;11.684;2022-09-01T08:44:59;0.00;;;0.00;;
7295;SDS011;40758;54.038;11.684;2022-09-01T08:47:38;0.00;;;0.00;;
7295;SDS011;40758;54.038;11.684;2022-09-01T08:50:27;1.17;;;0.10;;
7295;SDS011;40758;54.038;11.684;2022-09-01T08:52:58;0.00;;;0.00;;
7295;SDS011;40758;54.038;11.684;2022-09-01T08:55:38;0.00;;;0.00;;
7295;SDS011;40758;54.038;11.684;2022-09-01T08:58:14;0.00;;;0.00;;
7295;SDS011;40758;54.038;11.684;2022-09-01T09:00:46;0.00;;;0.00;;
7295;SDS011;40758;54.038;11.684;2022-09-01T09:05:25;0.00;;;0.00;;
7295;SDS011;40758;54.038;11.684;2022-09-01T09:11:35;0.00;;;0.00;;
7295;SDS011;40758;54.038;11.684;2022-09-01T09:14:36;0.00;;;0.00;;
7295;SDS011;40758;54.038;11.684;2022-09-01T09:17:24;0.00;;;0.00;;
7295;SDS011;40758;54.038;11.684;2022-09-01T09:20:00;0.00;;;0.00;;
7295;SDS011;40758;54.038;11.684;2022-09-01T09:22:33;0.00;;;0.00;;
7295;SDS011;40758;54.038;11.684;2022-09-01T09:25:02;0.00;;;0.00;;
7295;SDS011;40758;54.038;11.684;2022-09-01T09:27:38;0.00;;;0.00;;
7295;SDS011;40758;54.038;11.684;2022-09-01T09:30:09;0.00;;;0.00;;
7295;SDS011;40758;54.038;11.684;2022-09-01T09:32:42;0.00;;;0.00;;
7295;SDS011;40758;54.038;11.684;2022-09-01T09:35:36;0.10;;;0.10;;
7295;SDS011;40758;54.038;11.684;2022-09-01T09:38:16;0.00;;;0.00;;
7295;SDS011;40758;54.038;11.684;2022-09-01T09:40:56;0.00;;;0.00;;
7295;SDS011;40758;54.038;11.684;2022-09-01T09:43:48;0.00;;;0.00;;
7295;SDS011;40758;54.038;11.684;2022-09-01T09:46:26;0.00;;;0.00;;
7295;SDS011;40758;54.038;11.684;2022-09-01T09:49:07;0.00;;;0.00;;
7295;SDS011;40758;54.038;11.684;2022-09-01T09:52:11;0.00;;;0.00;;
7295;SDS011;40758;54.038;11.684;2022-09-01T09:54:59;0.00;;;0.00;;
7295;SDS011;40758;54.038;11.684;2022-09-01T09:57:31;0.00;;;0.00;;
7295;SDS011;40758;54.038;11.684;2022-09-01T10:00:14;0.00;;;0.00;;
7295;SDS011;40758;54.038;11.684;2022-09-01T10:02:53;0.00;;;0.00;;
7295;SDS011;40758;54.038;11.684;2022-09-01T10:05:35;0.00;;;0.00;;
7295;SDS011;40758;54.038;11.684;2022-09-01T10:08:10;0.00;;;0.00;;
7295;SDS011;40758;54.038;11.684;2022-09-01T10:10:48;0.00;;;0.00;;
7295;SDS011;40758;54.038;11.684;2022-09-01T10:13:24;0.00;;;0.00;;
7295;SDS011;40758;54.038;11.684;2022-09-01T10:15:59;0.00;;;0.00;;
7295;SDS011;40758;54.038;11.684;2022-09-01T10:18:35;0.00;;;0.00;;
7295;SDS011;40758;54.038;11.684;2022-09-01T10:21:07;0.00;;;0.00;;
7295;SDS011;40758;54.038;11.684;2022-09-01T10:23:41;0.00;;;0.00;;
7295;SDS011;40758;54.038;11.684;2022-09-01T10:26:14;0.00;;;0.00;;
7295;SDS011;40758;54.038;11.684;2022-09-01T10:28:51;0.00;;;0.00;;
7295;SDS011;40758;54.038;11.684;2022-09-01T10:31:25;0.00;;;0.00;;
7295;SDS011;40758;54.038;11.684;2022-09-01T10:33:58;0.00;;;0.00;;
7295;SDS011;40758;54.038;11.684;2022-09-01T10:36:31;0.00;;;0.00;;
7295;SDS011;40758;54.038;11.684;2022-09-01T10:39:03;0.00;;;0.00;;
7295;SDS011;40758;54.038;11.684;2022-09-01T10:44:33;0.00;;;0.00;;
7295;SDS011;40758;54.038;11.684;2022-09-01T10:47:07;0.00;;;0.00;;
7295;SDS011;40758;54.038;11.684;2022-09-01T10:52:55;0.00;;;0.00;;
7295;SDS011;40758;54.038;11.684;2022-09-01T10:55:36;0.00;;;0.00;;
7295;SDS011;40758;54.038;11.684;2022-09-01T10:58:18;0.00;;;0.00;;
7295;SDS011;40758;54.038;11.684;2022-09-01T11:05:18;0.05;;;0.05;;
7295;SDS011;40758;54.038;11.684;2022-09-01T11:07:47;0.00;;;0.00;;
7295;SDS011;40758;54.038;11.684;2022-09-01T11:10:34;0.00;;;0.00;;
7295;SDS011;40758;54.038;11.684;2022-09-01T11:16:25;0.00;;;0.00;;
7295;SDS011;40758;54.038;11.684;2022-09-01T11:19:21;0.00;;;0.00;;
7295;SDS011;40758;54.038;11.684;2022-09-01T11:22:07;0.00;;;0.00;;
7295;SDS011;40758;54.038;11.684;2022-09-01T11:24:46;0.00;;;0.00;;
7295;SDS011;40758;54.038;11.684;2022-09-01T11:28:04;0.00;;;0.00;;
7295;SDS011;40758;54.038;11.684;2022-09-01T11:30:53;0.00;;;0.00;;
7295;SDS011;40758;54.038;11.684;2022-09-01T11:33:28;0.00;;;0.00;;
7295;SDS011;40758;54.038;11.684;2022-09-01T11:36:12;0.20;;;0.20;;
7295;SDS011;40758;54.038;11.684;2022-09-01T11:38:52;0.00;;;0.00;;
7295;SDS011;40758;54.038;11.684;2022-09-01T11:41:34;0.00;;;0.00;;
7295;SDS011;40758;54.038;11.684;2022-09-01T11:44:26;3.10;;;1.50;;
7295;SDS011;40758;54.038;11.684;2022-09-01T11:47:09;0.00;;;0.00;;
7295;SDS011;40758;54.038;11.684;2022-09-01T11:49:51;0.00;;;0.00;;
7295;SDS011;40758;54.038;11.684;2022-09-01T11:52:35;0.00;;;0.00;;
7295;SDS011;40758;54.038;11.684;2022-09-01T11:55:08;0.00;;;0.00;;
7295;SDS011;40758;54.038;11.684;2022-09-01T11:57:38;0.00;;;0.00;;
7295;SDS011;40758;54.038;11.684;2022-09-01T12:00:08;0.00;;;0.00;;
7295;SDS011;40758;54.038;11.684;2022-09-01T12:02:42;0.00;;;0.00;;
7295;SDS011;40758;54.038;11.684;2022-09-01T12:05:26;0.00;;;0.00;;
7295;SDS011;40758;54.038;11.684;2022-09-01T12:07:59;0.00;;;0.00;;
7295;SDS011;40758;54.038;11.684;2022-09-01T12:10:34;0.00;;;0.00;;
7295;SDS011;40758;54.038;11.684;2022-09-01T12:13:06;0.00;;;0.00;;
7295;SDS011;40758;54.038;11.684;2022-09-01T12:15:38;0.00;;;0.00;;
7295;SDS011;40758;54.038;11.684;2022-09-01T12:18:28;0.00;;;0.00;;
7295;SDS011;40758;54.038;11.684;2022-09-01T12:21:01;0.00;;;0.00;;
7295;SDS011;40758;54.038;11.684;2022-09-01T12:23:34;0.00;;;0.00;;
7295;SDS011;40758;54.038;11.684;2022-09-01T12:26:07;0.00;;;0.00;;
7295;SDS011;40758;54.038;11.684;2022-09-01T12:28:41;0.00;;;0.00;;
7295;SDS011;40758;54.038;11.684;2022-09-01T12:31:12;0.00;;;0.00;;
7295;SDS011;40758;54.038;11.684;2022-09-01T12:33:45;0.00;;;0.00;;
7295;SDS011;40758;54.038;11.684;2022-09-01T12:36:23;0.45;;;0.10;;
7295;SDS011;40758;54.038;11.684;2022-09-01T12:38:55;0.00;;;0.00;;
7295;SDS011;40758;54.038;11.684;2022-09-01T12:42:00;0.00;;;0.00;;
7295;SDS011;40758;54.038;11.684;2022-09-01T12:44:33;0.00;;;0.00;;
7295;SDS011;40758;54.038;11.684;2022-09-01T12:47:21;0.00;;;0.00;;
7295;SDS011;40758;54.038;11.684;2022-09-01T12:50:33;0.00;;;0.00;;
7295;SDS011;40758;54.038;11.684;2022-09-01T12:53:20;0.00;;;0.00;;
7295;SDS011;40758;54.038;11.684;2022-09-01T12:56:19;0.00;;;0.00;;
7295;SDS011;40758;54.038;11.684;2022-09-01T12:59:03;0.00;;;0.00;;
7295;SDS011;40758;54.038;11.684;2022-09-01T13:01:42;2.20;;;0.17;;
7295;SDS011;40758;54.038;11.684;2022-09-01T13:05:22;0.00;;;0.00;;
7295;SDS011;40758;54.038;11.684;2022-09-01T13:08:01;0.00;;;0.00;;
7295;SDS011;40758;54.038;11.684;2022-09-01T13:10:35;0.00;;;0.00;;
7295;SDS011;40758;54.038;11.684;2022-09-01T13:13:09;0.00;;;0.00;;
7295;SDS011;40758;54.038;11.684;2022-09-01T13:15:40;0.00;;;0.00;;
7295;SDS011;40758;54.038;11.684;2022-09-01T13:18:13;0.00;;;0.00;;
7295;SDS011;40758;54.038;11.684;2022-09-01T13:20:44;0.52;;;0.10;;
7295;SDS011;40758;54.038;11.684;2022-09-01T13:23:12;0.00;;;0.00;;
7295;SDS011;40758;54.038;11.684;2022-09-01T13:25:42;0.00;;;0.00;;
7295;SDS011;40758;54.038;11.684;2022-09-01T13:28:12;0.03;;;0.03;;
7295;SDS011;40758;54.038;11.684;2022-09-01T13:30:43;0.00;;;0.00;;
7295;SDS011;40758;54.038;11.684;2022-09-01T13:33:38;0.00;;;0.00;;
7295;SDS011;40758;54.038;11.684;2022-09-01T13:36:28;0.10;;;0.10;;
7295;SDS011;40758;54.038;11.684;2022-09-01T13:39:17;0.00;;;0.00;;
7295;SDS011;40758;54.038;11.684;2022-09-01T13:41:48;0.00;;;0.00;;
7295;SDS011;40758;54.038;11.684;2022-09-01T13:44:16;0.00;;;0.00;;
7295;SDS011;40758;54.038;11.684;2022-09-01T13:46:46;0.00;;;0.00;;
7295;SDS011;40758;54.038;11.684;2022-09-01T13:49:36;0.00;;;0.00;;
7295;SDS011;40758;54.038;11.684;2022-09-01T13:52:26;0.00;;;0.00;;
7295;SDS011;40758;54.038;11.684;2022-09-01T13:54:56;0.00;;;0.00;;
7295;SDS011;40758;54.038;11.684;2022-09-01T13:57:24;0.00;;;0.00;;
7295;SDS011;40758;54.038;11.684;2022-09-01T14:00:01;2.17;;;0.10;;
7295;SDS011;40758;54.038;11.684;2022-09-01T14:02:33;0.00;;;0.00;;
7295;SDS011;40758;54.038;11.684;2022-09-01T14:05:02;0.00;;;0.00;;
7295;SDS011;40758;54.038;11.684;2022-09-01T14:07:33;0.00;;;0.00;;
7295;SDS011;40758;54.038;11.684;2022-09-01T14:10:02;0.10;;;0.10;;
7295;SDS011;40758;54.038;11.684;2022-09-01T14:12:33;0.00;;;0.00;;
7295;SDS011;40758;54.038;11.684;2022-09-01T14:15:03;0.00;;;0.00;;
7295;SDS011;40758;54.038;11.684;2022-09-01T14:17:41;3.63;;;0.13;;
7295;SDS011;40758;54.038;11.684;2022-09-01T14:20:12;0.00;;;0.00;;
7295;SDS011;40758;54.038;11.684;2022-09-01T14:22:46;0.00;;;0.00;;
7295;SDS011;40758;54.038;11.684;2022-09-01T14:25:17;0.00;;;0.00;;
7295;SDS011;40758;54.038;11.684;2022-09-01T14:27:47;0.00;;;0.00;;
7295;SDS011;40758;54.038;11.684;2022-09-01T14:30:19;0.00;;;0.00;;
7295;SDS011;40758;54.038;11.684;2022-09-01T14:32:56;0.00;;;0.00;;
7295;SDS011;40758;54.038;11.684;2022-09-01T14:35:26;2.63;;;0.10;;
7295;SDS011;40758;54.038;11.684;2022-09-01T14:38:01;0.00;;;0.00;;
7295;SDS011;40758;54.038;11.684;2022-09-01T14:40:31;0.00;;;0.00;;
7295;SDS011;40758;54.038;11.684;2022-09-01T14:43:05;2.05;;;1.27;;
7295;SDS011;40758;54.038;11.684;2022-09-01T14:45:38;0.00;;;0.00;;
7295;SDS011;40758;54.038;11.684;2022-09-01T14:48:12;0.00;;;0.00;;
7295;SDS011;40758;54.038;11.684;2022-09-01T14:50:43;0.00;;;0.00;;
7295;SDS011;40758;54.038;11.684;2022-09-01T14:53:17;0.00;;;0.00;;
7295;SDS011;40758;54.038;11.684;2022-09-01T14:55:48;0.00;;;0.00;;
7295;SDS011;40758;54.038;11.684;2022-09-01T14:58:21;0.00;;;0.00;;
7295;SDS011;40758;54.038;11.684;2022-09-01T15:00:52;0.00;;;0.00;;
7295;SDS011;40758;54.038;11.684;2022-09-01T15:05:18;0.00;;;0.00;;
7295;SDS011;40758;54.038;11.684;2022-09-01T15:07:48;0.00;;;0.00;;
7295;SDS011;40758;54.038;11.684;2022-09-01T15:10:19;0.00;;;0.00;;
7295;SDS011;40758;54.038;11.684;2022-09-01T15:12:55;0.00;;;0.00;;
7295;SDS011;40758;54.038;11.684;2022-09-01T15:15:27;0.00;;;0.00;;
7295;SDS011;40758;54.038;11.684;2022-09-01T15:18:00;0.00;;;0.00;;
7295;SDS011;40758;54.038;11.684;2022-09-01T15:20:31;0.00;;;0.00;;
7295;SDS011;40758;54.038;11.684;2022-09-01T15:23:12;0.00;;;0.00;;
7295;SDS011;40758;54.038;11.684;2022-09-01T15:25:49;0.00;;;0.00;;
7295;SDS011;40758;54.038;11.684;2022-09-01T15:28:22;0.00;;;0.00;;
7295;SDS011;40758;54.038;11.684;2022-09-01T15:30:52;0.00;;;0.00;;
7295;SDS011;40758;54.038;11.684;2022-09-01T15:33:25;0.00;;;0.00;;
7295;SDS011;40758;54.038;11.684;2022-09-01T15:35:56;0.00;;;0.00;;
7295;SDS011;40758;54.038;11.684;2022-09-01T15:38:24;0.00;;;0.00;;
7295;SDS011;40758;54.038;11.684;2022-09-01T15:40:56;0.00;;;0.00;;
7295;SDS011;40758;54.038;11.684;2022-09-01T15:43:28;0.00;;;0.00;;
7295;SDS011;40758;54.038;11.684;2022-09-01T15:45:58;0.08;;;0.08;;
7295;SDS011;40758;54.038;11.684;2022-09-01T15:48:31;0.00;;;0.00;;
7295;SDS011;40758;54.038;11.684;2022-09-01T15:51:25;0.00;;;0.00;;
7295;SDS011;40758;54.038;11.684;2022-09-01T15:54:00;0.00;;;0.00;;
7295;SDS011;40758;54.038;11.684;2022-09-01T15:56:31;0.00;;;0.00;;
7295;SDS011;40758;54.038;11.684;2022-09-01T15:59:02;0.00;;;0.00;;
7295;SDS011;40758;54.038;11.684;2022-09-01T16:01:35;0.00;;;0.00;;
7295;SDS011;40758;54.038;11.684;2022-09-01T16:04:07;0.00;;;0.00;;
7295;SDS011;40758;54.038;11.684;2022-09-01T16:06:46;0.00;;;0.00;;